Time;durP1;ratioP1;P1;durP2;ratioP2;P2;SDS_P1;SDS_P2;PMS_P1;PMS_P2;Temp;Humidity;BMP_temperature;BMP_pressure;BME280_temperature;BME280_humidity;BME280_pressure;Samples;Min_cycle;Max_cycle;Signal;HPM_P1;HPM_P2
2023/05/15 00:00:09;;;;;;;6.50;5.90;;;15.20;99.90;;;;;;5030320;28;20203;-74
2023/05/15 00:02:36;;;;;;;6.33;5.73;;;15.10;99.90;;;;;;5030381;28;20937;-73
2023/05/15 00:05:03;;;;;;;7.20;6.60;;;15.10;99.90;;;;;;5012207;28;20453;-73
2023/05/15 00:07:29;;;;;;;6.97;6.37;;;15.10;99.90;;;;;;5029458;28;20914;-74
2023/05/15 00:09:55;;;;;;;7.47;6.77;;;15.00;99.90;;;;;;5040395;28;20481;-73
2023/05/15 00:12:21;;;;;;;7.77;7.17;;;15.00;99.90;;;;;;5049996;28;20432;-74
2023/05/15 00:14:46;;;;;;;9.63;8.30;;;15.00;99.90;;;;;;5049434;28;20185;-74
2023/05/15 00:17:12;;;;;;;11.10;9.93;;;15.00;99.90;;;;;;5049663;28;20174;-74
2023/05/15 00:19:38;;;;;;;11.73;10.53;;;15.00;99.90;;;;;;5049267;28;20208;-74
2023/05/15 00:22:04;;;;;;;12.07;11.00;;;15.00;99.90;;;;;;5049598;28;20557;-74
2023/05/15 00:24:29;;;;;;;11.77;10.63;;;15.10;99.90;;;;;;5049093;28;20174;-73
2023/05/15 00:26:55;;;;;;;13.10;11.80;;;15.10;99.90;;;;;;5049568;28;20276;-73
2023/05/15 00:29:21;;;;;;;12.27;11.10;;;15.10;99.90;;;;;;5049253;28;20627;-74
2023/05/15 00:31:47;;;;;;;12.90;11.60;;;15.20;99.90;;;;;;5049430;28;20328;-74
2023/05/15 00:34:12;;;;;;;12.50;11.40;;;15.20;99.90;;;;;;5049247;28;20166;-74
2023/05/15 00:36:38;;;;;;;12.70;11.50;;;15.20;99.90;;;;;;5049579;28;20676;-74
2023/05/15 00:39:04;;;;;;;13.73;11.93;;;15.30;99.90;;;;;;5049222;28;20174;-74
2023/05/15 00:41:31;;;;;;;13.87;12.57;;;15.30;99.90;;;;;;5048869;28;20213;-73
2023/05/15 00:43:59;;;;;;;13.70;12.17;;;15.30;99.90;;;;;;5049136;28;20174;-73
2023/05/15 00:46:27;;;;;;;14.07;12.73;;;15.30;99.90;;;;;;5049411;28;20408;-74
2023/05/15 00:48:54;;;;;;;14.10;12.70;;;15.30;99.90;;;;;;5049296;28;20420;-73
2023/05/15 00:51:20;;;;;;;13.10;11.80;;;15.40;99.90;;;;;;5031005;28;20982;-73
2023/05/15 00:53:46;;;;;;;12.70;11.40;;;15.40;99.90;;;;;;5048947;28;20420;-73
2023/05/15 00:56:13;;;;;;;11.43;10.43;;;15.40;99.90;;;;;;5049008;28;20665;-73
2023/05/15 00:58:39;;;;;;;11.67;10.40;;;15.30;99.90;;;;;;5049043;28;20412;-73
2023/05/15 01:01:05;;;;;;;10.30;9.30;;;15.30;99.90;;;;;;5048680;28;20970;-73
2023/05/15 01:03:31;;;;;;;10.20;9.30;;;15.20;99.90;;;;;;5048744;28;20415;-73
2023/05/15 01:05:57;;;;;;;11.03;9.93;;;15.10;99.90;;;;;;5048400;28;20659;-73
2023/05/15 01:08:29;;;;;;;11.10;10.00;;;15.00;99.90;;;;;;5031023;28;20440;-73
2023/05/15 01:10:57;;;;;;;11.30;10.40;;;15.00;99.90;;;;;;5048632;28;20170;-73
2023/05/15 01:13:23;;;;;;;12.13;11.00;;;15.00;99.90;;;;;;5048373;28;20439;-73
2023/05/15 01:15:49;;;;;;;10.57;9.57;;;14.90;99.90;;;;;;5048595;28;20409;-73
2023/05/15 01:18:15;;;;;;;10.83;9.93;;;14.90;99.90;;;;;;5030731;28;20423;-73
2023/05/15 01:20:56;;;;;;;11.57;10.47;;;14.90;99.90;;;;;;5048521;28;20483;-74
2023/05/15 01:23:52;;;;;;;10.40;9.30;;;14.80;99.90;;;;;;5048385;28;20477;-74
2023/05/15 01:26:34;;;;;;;12.80;9.80;;;14.80;99.90;;;;;;5048426;28;20412;-74
2023/05/15 01:29:18;;;;;;;11.17;10.10;;;14.70;99.90;;;;;;5048363;28;20933;-74
2023/05/15 01:31:49;;;;;;;10.33;9.33;;;14.70;99.90;;;;;;5030461;28;20446;-73
2023/05/15 01:34:18;;;;;;;10.60;9.57;;;14.70;99.90;;;;;;5030380;28;20434;-73
2023/05/15 01:37:03;;;;;;;10.00;9.00;;;14.60;99.90;;;;;;5048265;28;20423;-74
2023/05/15 01:39:32;;;;;;;10.90;9.90;;;14.50;99.90;;;;;;5048371;28;20511;-73
2023/05/15 01:42:11;;;;;;;11.83;10.20;;;14.50;99.90;;;;;;5030189;28;20458;-73
2023/05/15 01:44:41;;;;;;;11.00;9.90;;;14.50;99.90;;;;;;5048026;28;20400;-73
2023/05/15 01:47:16;;;;;;;11.40;10.33;;;14.40;99.90;;;;;;5048089;28;20405;-73
2023/05/15 01:49:44;;;;;;;14.37;11.07;;;14.40;99.90;;;;;;5029847;28;21001;-73
2023/05/15 01:52:17;;;;;;;11.50;10.50;;;14.40;99.90;;;;;;5048192;28;20578;-73
2023/05/15 01:54:45;;;;;;;12.07;10.97;;;14.40;99.90;;;;;;5047910;28;20408;-73
2023/05/15 01:57:11;;;;;;;12.63;11.43;;;14.30;99.90;;;;;;5047753;28;20508;-73
2023/05/15 01:59:38;;;;;;;12.77;11.40;;;14.30;99.90;;;;;;5030084;28;20427;-73
2023/05/15 02:02:04;;;;;;;15.90;13.57;;;14.30;99.90;;;;;;5047960;28;20558;-73
2023/05/15 02:04:32;;;;;;;14.77;13.27;;;14.30;99.90;;;;;;5048008;28;20474;-73
2023/05/15 02:07:00;;;;;;;15.57;13.90;;;14.40;99.90;;;;;;5047019;28;20413;-73
2023/05/15 02:09:27;;;;;;;13.37;11.80;;;14.30;99.90;;;;;;5047530;28;20415;-73
2023/05/15 02:11:54;;;;;;;15.03;13.50;;;14.30;99.90;;;;;;5047752;28;20834;-73
2023/05/15 02:14:21;;;;;;;14.93;13.43;;;14.30;99.90;;;;;;5047818;28;20574;-73
2023/05/15 02:16:47;;;;;;;14.60;13.00;;;14.30;99.90;;;;;;5047713;28;20806;-73
2023/05/15 02:19:13;;;;;;;15.83;13.47;;;14.30;99.90;;;;;;5048043;28;20409;-73
2023/05/15 02:21:38;;;;;;;14.60;13.20;;;14.30;99.90;;;;;;5047498;28;20315;-73
2023/05/15 02:24:04;;;;;;;14.33;12.93;;;14.20;99.90;;;;;;5047709;28;20174;-73
2023/05/15 02:26:54;;;;;;;14.03;12.53;;;14.20;99.90;;;;;;5047851;28;20599;-73
2023/05/15 02:29:51;;;;;;;19.37;15.70;;;14.10;99.90;;;;;;5047873;28;20531;-73
2023/05/15 02:32:38;;;;;;;15.80;13.20;;;14.10;99.90;;;;;;5047765;28;20436;-73
2023/05/15 02:35:20;;;;;;;16.47;13.80;;;14.10;99.90;;;;;;5047553;28;20401;-73
2023/05/15 02:37:49;;;;;;;14.40;13.00;;;14.10;99.90;;;;;;5047754;28;20912;-73
2023/05/15 02:40:15;;;;;;;14.00;12.53;;;14.10;99.90;;;;;;5047365;28;20850;-73
2023/05/15 02:42:44;;;;;;;14.10;12.70;;;14.10;99.90;;;;;;5047378;28;20487;-73
2023/05/15 02:45:11;;;;;;;13.93;12.63;;;14.10;99.90;;;;;;5047703;28;20938;-73
2023/05/15 02:47:38;;;;;;;16.10;14.40;;;14.10;99.90;;;;;;5047358;28;20747;-73
2023/05/15 02:50:05;;;;;;;14.33;12.93;;;14.00;99.90;;;;;;5047475;28;20422;-73
2023/05/15 02:52:33;;;;;;;14.87;13.37;;;14.00;99.90;;;;;;5047427;28;20443;-73
2023/05/15 02:54:59;;;;;;;14.27;12.87;;;14.00;99.90;;;;;;5047472;28;20495;-73
2023/05/15 02:57:25;;;;;;;14.90;13.10;;;14.00;99.90;;;;;;5047234;28;20420;-73
2023/05/15 02:59:53;;;;;;;17.90;16.10;;;14.00;99.90;;;;;;5047359;28;21014;-73
2023/05/15 03:02:19;;;;;;;30.43;20.03;;;14.00;99.90;;;;;;5032279;28;21258;-73
2023/05/15 03:04:44;;;;;;;30.10;22.07;;;14.00;99.90;;;;;;5051035;28;20470;-73
2023/05/15 03:07:10;;;;;;;32.60;24.03;;;14.20;99.90;;;;;;5050285;28;20660;-74
2023/05/15 03:09:36;;;;;;;37.80;25.30;;;14.20;99.90;;;;;;5051068;28;20172;-73
2023/05/15 03:12:01;;;;;;;43.40;26.80;;;14.20;99.90;;;;;;5051120;28;20189;-73
2023/05/15 03:14:27;;;;;;;42.37;28.23;;;14.20;99.90;;;;;;5050939;28;20170;-74
2023/05/15 03:16:53;;;;;;;47.97;27.23;;;14.30;99.90;;;;;;5050918;28;20291;-73
2023/05/15 03:19:18;;;;;;;48.47;30.30;;;14.30;99.90;;;;;;5050823;28;20501;-74
2023/05/15 03:21:44;;;;;;;50.30;29.93;;;14.30;99.90;;;;;;5032578;28;20213;-73
2023/05/15 03:24:10;;;;;;;53.83;31.30;;;14.30;99.90;;;;;;5050734;28;20162;-74
2023/05/15 03:26:36;;;;;;;55.27;32.83;;;14.30;99.90;;;;;;5032825;28;20844;-74
2023/05/15 03:29:02;;;;;;;59.70;33.57;;;14.40;99.90;;;;;;5050690;28;20177;-74
2023/05/15 03:31:27;;;;;;;60.37;33.20;;;14.40;99.90;;;;;;5050730;28;20761;-73
2023/05/15 03:33:53;;;;;;;62.07;35.43;;;14.50;99.90;;;;;;5050439;28;20181;-73
2023/05/15 03:36:18;;;;;;;62.07;34.30;;;14.50;99.90;;;;;;5050453;28;20185;-73
2023/05/15 03:38:44;;;;;;;52.70;34.13;;;14.50;99.90;;;;;;5050173;28;20236;-73
2023/05/15 03:41:10;;;;;;;59.70;36.90;;;14.50;99.90;;;;;;5049585;28;20209;-73
2023/05/15 03:43:35;;;;;;;69.13;38.87;;;14.50;99.90;;;;;;5032097;28;20185;-73
2023/05/15 03:46:01;;;;;;;61.10;37.17;;;14.50;99.90;;;;;;5050442;28;20599;-73
2023/05/15 03:48:27;;;;;;;64.43;37.60;;;14.60;99.90;;;;;;5050184;28;20197;-73
2023/05/15 03:50:52;;;;;;;65.80;38.97;;;14.60;99.90;;;;;;5050205;28;20178;-73
2023/05/15 03:53:18;;;;;;;58.60;37.17;;;14.60;99.90;;;;;;5049639;28;20339;-73
2023/05/15 03:55:44;;;;;;;59.17;37.33;;;14.60;99.90;;;;;;5050129;28;20267;-73
2023/05/15 03:58:10;;;;;;;58.93;36.93;;;14.70;99.90;;;;;;5032301;28;20233;-73
2023/05/15 04:00:35;;;;;;;59.57;35.40;;;14.70;99.90;;;;;;5050130;28;20448;-73
2023/05/15 04:03:01;;;;;;;55.03;37.00;;;14.70;99.90;;;;;;5050057;28;20198;-74
2023/05/15 04:05:27;;;;;;;57.80;34.83;;;14.70;99.90;;;;;;5032223;28;20169;-73
2023/05/15 04:07:52;;;;;;;54.07;34.83;;;14.70;99.90;;;;;;5050128;28;20259;-74
2023/05/15 04:10:18;;;;;;;51.47;35.60;;;14.70;99.90;;;;;;5049891;28;20186;-73
2023/05/15 04:12:44;;;;;;;53.00;37.53;;;14.70;99.90;;;;;;5014979;28;20201;-73
2023/05/15 04:15:17;;;;;;;58.03;38.87;;;14.70;99.90;;;;;;5049891;28;20416;-74
2023/05/15 04:17:45;;;;;;;53.90;37.40;;;14.70;99.90;;;;;;5049917;28;20196;-73
2023/05/15 04:20:15;;;;;;;54.77;39.70;;;14.70;99.90;;;;;;5031945;28;20440;-73
2023/05/15 04:22:42;;;;;;;59.57;38.87;;;14.70;99.90;;;;;;5031973;28;20574;-74
2023/05/15 04:25:09;;;;;;;57.87;39.40;;;14.70;99.90;;;;;;5049830;28;20427;-73
2023/05/15 04:27:35;;;;;;;63.17;39.30;;;14.70;99.90;;;;;;5049403;28;20427;-73
2023/05/15 04:30:02;;;;;;;64.90;39.93;;;14.70;99.90;;;;;;5048957;28;20710;-73
2023/05/15 04:32:29;;;;;;;61.83;40.60;;;14.70;99.90;;;;;;5031767;28;20479;-73
2023/05/15 04:34:55;;;;;;;62.90;42.90;;;14.70;99.90;;;;;;5049586;28;20419;-73
2023/05/15 04:37:20;;;;;;;69.47;42.07;;;14.70;99.90;;;;;;5049833;28;20716;-73
2023/05/15 04:39:46;;;;;;;65.20;41.27;;;14.70;99.90;;;;;;5031824;28;21135;-73
2023/05/15 04:42:12;;;;;;;55.80;38.53;;;14.80;99.90;;;;;;5048851;28;20210;-73
2023/05/15 04:44:38;;;;;;;55.40;37.70;;;14.80;99.90;;;;;;5047606;28;20186;-73
2023/05/15 04:47:04;;;;;;;55.60;38.50;;;14.80;99.90;;;;;;5048887;28;20192;-72
2023/05/15 04:49:29;;;;;;;56.93;38.13;;;14.80;99.90;;;;;;5049082;28;20169;-73
2023/05/15 04:51:55;;;;;;;64.53;37.63;;;14.80;99.90;;;;;;5031358;28;20899;-73
2023/05/15 04:54:21;;;;;;;54.20;36.07;;;14.80;99.90;;;;;;5044022;28;20187;-73
2023/05/15 04:56:47;;;;;;;62.50;38.47;;;14.80;99.90;;;;;;5027490;28;20177;-73
2023/05/15 04:59:12;;;;;;;56.13;37.73;;;14.80;99.90;;;;;;5030701;28;20239;-73
2023/05/15 05:01:38;;;;;;;52.23;35.83;;;14.80;99.90;;;;;;5030800;28;20968;-73
2023/05/15 05:04:04;;;;;;;52.67;36.63;;;14.80;99.90;;;;;;5048715;28;20256;-72
2023/05/15 05:06:30;;;;;;;45.67;34.80;;;14.80;99.90;;;;;;5031172;28;20411;-72
2023/05/15 05:08:56;;;;;;;53.77;36.97;;;14.70;99.90;;;;;;5048765;28;20416;-73
2023/05/15 05:11:22;;;;;;;61.53;39.23;;;14.70;99.90;;;;;;5043972;28;20206;-72
2023/05/15 05:13:48;;;;;;;55.23;37.67;;;14.80;99.90;;;;;;5048147;28;20482;-72
2023/05/15 05:16:14;;;;;;;56.80;36.97;;;14.70;99.90;;;;;;5048875;28;20177;-73
2023/05/15 05:18:39;;;;;;;56.03;37.13;;;14.70;99.90;;;;;;5048508;28;20420;-73
2023/05/15 05:21:05;;;;;;;47.40;34.90;;;14.70;99.90;;;;;;5048686;28;20487;-72
2023/05/15 05:23:31;;;;;;;56.80;37.60;;;14.70;99.90;;;;;;5047691;28;20655;-75
2023/05/15 05:25:58;;;;;;;48.90;35.27;;;14.70;99.90;;;;;;5048631;28;20177;-74
2023/05/15 05:28:24;;;;;;;52.30;37.13;;;14.80;99.90;;;;;;5046679;28;20952;-75
2023/05/15 05:30:50;;;;;;;51.40;37.60;;;14.80;99.90;;;;;;5030463;28;20503;-74
2023/05/15 05:33:16;;;;;;;54.43;38.00;;;14.80;99.90;;;;;;5047228;28;20660;-75
2023/05/15 05:35:41;;;;;;;49.00;35.97;;;14.80;99.90;;;;;;5030272;28;20614;-75
2023/05/15 05:38:07;;;;;;;45.93;36.13;;;14.80;99.90;;;;;;5048029;28;20198;-74
2023/05/15 05:40:33;;;;;;;49.33;35.93;;;14.80;99.90;;;;;;5030072;28;20704;-75
2023/05/15 05:43:02;;;;;;;45.40;34.30;;;14.70;99.90;;;;;;5029416;28;20643;-73
2023/05/15 05:45:27;;;;;;;47.67;34.43;;;14.70;99.90;;;;;;5046468;28;20174;-75
2023/05/15 05:47:56;;;;;;;43.63;34.30;;;14.70;99.90;;;;;;5030031;28;20423;-75
2023/05/15 05:50:23;;;;;;;42.70;32.83;;;14.60;99.90;;;;;;5047934;28;20174;-74
2023/05/15 05:52:48;;;;;;;44.37;36.03;;;14.60;99.90;;;;;;5029855;28;20932;-75
2023/05/15 05:55:14;;;;;;;43.90;33.60;;;14.60;99.90;;;;;;5046458;28;20436;-74
2023/05/15 05:57:40;;;;;;;43.90;33.67;;;14.60;99.90;;;;;;5047546;28;20178;-76
2023/05/15 06:00:09;;;;;;;46.87;35.97;;;14.60;99.90;;;;;;5047836;28;20700;-74
2023/05/15 06:02:39;;;;;;;46.70;35.70;;;14.60;99.90;;;;;;5029909;28;20432;-75
2023/05/15 06:05:06;;;;;;;48.27;36.57;;;14.70;99.90;;;;;;5047991;28;20420;-75
2023/05/15 06:07:32;;;;;;;48.13;38.03;;;14.70;99.90;;;;;;5047665;28;20423;-76
2023/05/15 06:09:58;;;;;;;46.10;35.67;;;14.70;99.90;;;;;;5047703;28;20423;-75
2023/05/15 06:12:24;;;;;;;50.70;37.07;;;14.70;99.90;;;;;;5047860;28;20794;-75
2023/05/15 06:14:50;;;;;;;50.80;39.40;;;14.60;99.90;;;;;;5047672;28;20236;-72
2023/05/15 06:17:16;;;;;;;55.43;39.90;;;14.60;99.90;;;;;;5047664;28;20448;-73
2023/05/15 06:19:42;;;;;;;52.63;39.50;;;14.60;99.90;;;;;;5047435;28;20178;-73
2023/05/15 06:22:07;;;;;;;54.50;41.47;;;14.70;99.90;;;;;;5024703;28;20615;-73
2023/05/15 06:24:33;;;;;;;59.43;42.37;;;14.70;99.90;;;;;;5046880;28;20181;-73
2023/05/15 06:26:59;;;;;;;60.50;43.27;;;14.70;99.90;;;;;;5027821;28;20282;-73
2023/05/15 06:29:25;;;;;;;63.03;45.10;;;14.80;99.90;;;;;;5044240;28;20653;-73
2023/05/15 06:31:51;;;;;;;70.43;45.57;;;14.80;99.90;;;;;;5042985;28;20970;-73
2023/05/15 06:34:17;;;;;;;67.97;47.33;;;14.80;99.90;;;;;;5045023;28;20492;-73
2023/05/15 06:36:43;;;;;;;74.10;50.90;;;14.90;99.90;;;;;;5050216;28;20432;-73
2023/05/15 06:39:09;;;;;;;66.60;44.70;;;14.90;99.90;;;;;;5049949;28;20201;-73
2023/05/15 06:41:36;;;;;;;65.33;47.73;;;14.90;99.90;;;;;;5050126;28;20475;-73
2023/05/15 06:44:03;;;;;;;71.73;48.67;;;14.90;99.90;;;;;;5051352;28;20182;-73
2023/05/15 06:46:29;;;;;;;75.40;52.20;;;14.90;99.90;;;;;;5051497;28;20416;-73
2023/05/15 06:48:55;;;;;;;69.60;49.67;;;15.00;99.90;;;;;;5051636;28;20783;-73
2023/05/15 06:51:21;;;;;;;87.23;55.20;;;15.00;99.90;;;;;;5051166;28;20205;-73
2023/05/15 06:53:46;;;;;;;83.50;51.90;;;15.00;99.90;;;;;;5051116;28;20416;-73
2023/05/15 06:56:12;;;;;;;86.10;53.30;;;15.00;99.90;;;;;;5033588;28;20205;-73
2023/05/15 06:58:38;;;;;;;91.50;54.67;;;15.00;99.90;;;;;;5050880;28;20356;-73
2023/05/15 07:01:05;;;;;;;89.13;54.30;;;15.10;99.90;;;;;;5050991;28;20206;-73
2023/05/15 07:03:30;;;;;;;92.80;56.97;;;15.20;99.90;;;;;;5016344;28;20174;-73
2023/05/15 07:05:56;;;;;;;86.37;54.20;;;15.10;99.90;;;;;;5051238;28;20400;-73
2023/05/15 07:08:22;;;;;;;86.70;55.13;;;15.20;99.90;;;;;;5051069;28;20652;-73
2023/05/15 07:10:48;;;;;;;89.80;54.07;;;15.30;99.90;;;;;;5050885;28;20473;-73
2023/05/15 07:13:17;;;;;;;89.80;53.60;;;15.30;99.90;;;;;;5050685;28;20213;-73
2023/05/15 07:15:43;;;;;;;91.10;53.77;;;15.30;99.90;;;;;;5050896;28;20426;-73
2023/05/15 07:18:09;;;;;;;89.70;52.80;;;15.20;99.90;;;;;;5033171;28;21131;-73
2023/05/15 07:20:34;;;;;;;95.27;54.50;;;15.20;99.90;;;;;;5050506;28;20503;-73
2023/05/15 07:23:00;;;;;;;89.53;53.63;;;15.20;99.90;;;;;;5050646;28;20198;-73
2023/05/15 07:25:26;;;;;;;95.50;56.00;;;15.10;99.90;;;;;;5032823;28;20584;-73
2023/05/15 07:27:52;;;;;;;87.40;55.47;;;15.10;99.90;;;;;;5050459;28;20192;-73
2023/05/15 07:30:18;;;;;;;86.47;52.83;;;15.10;99.90;;;;;;5049875;28;20205;-73
2023/05/15 07:32:43;;;;;;;86.37;56.03;;;15.10;99.90;;;;;;5050781;28;20501;-73
2023/05/15 07:35:10;;;;;;;91.90;55.13;;;15.10;99.90;;;;;;5032560;28;20916;-73
2023/05/15 07:37:36;;;;;;;87.27;52.90;;;15.10;99.90;;;;;;5050682;28;20268;-73
2023/05/15 07:40:03;;;;;;;89.40;56.23;;;15.20;99.90;;;;;;5050245;28;20464;-73
2023/05/15 07:42:28;;;;;;;80.50;52.47;;;15.20;99.90;;;;;;5032572;28;20524;-73
2023/05/15 07:44:54;;;;;;;78.80;51.53;;;15.20;99.90;;;;;;5032467;28;20506;-73
2023/05/15 07:47:20;;;;;;;80.00;52.90;;;15.20;99.90;;;;;;5049771;28;20189;-73
2023/05/15 07:49:46;;;;;;;85.20;55.10;;;15.20;99.90;;;;;;5050320;28;20638;-73
2023/05/15 07:52:11;;;;;;;70.57;49.57;;;15.20;99.90;;;;;;5050260;28;20495;-73
2023/05/15 07:54:38;;;;;;;75.30;50.20;;;15.30;99.90;;;;;;5050119;28;20178;-73
2023/05/15 07:57:04;;;;;;;72.50;49.13;;;15.20;99.90;;;;;;5015722;28;20190;-73
2023/05/15 07:59:30;;;;;;;73.23;48.80;;;15.30;99.90;;;;;;5050229;28;20415;-73
2023/05/15 08:01:55;;;;;;;64.90;46.30;;;15.30;99.90;;;;;;5050131;28;20464;-73
2023/05/15 08:04:21;;;;;;;66.83;45.47;;;15.40;99.90;;;;;;5050081;28;20185;-73
2023/05/15 08:06:47;;;;;;;57.00;44.37;;;15.50;99.90;;;;;;5032034;28;20182;-73
2023/05/15 08:09:12;;;;;;;49.47;37.87;;;15.50;99.90;;;;;;5032312;28;20217;-73
2023/05/15 08:11:38;;;;;;;56.07;40.70;;;15.60;99.90;;;;;;5050056;28;20213;-73
2023/05/15 08:14:04;;;;;;;58.07;41.97;;;15.60;99.90;;;;;;5049735;28;20189;-73
2023/05/15 08:16:29;;;;;;;58.80;43.10;;;15.70;99.90;;;;;;5032100;28;20182;-73
2023/05/15 08:19:00;;;;;;;56.73;42.00;;;15.80;99.90;;;;;;5032115;28;20178;-73
2023/05/15 08:21:26;;;;;;;57.03;44.50;;;15.80;99.90;;;;;;5049747;28;20233;-73
2023/05/15 08:23:52;;;;;;;56.80;45.60;;;15.90;99.90;;;;;;5049850;28;20419;-73
2023/05/15 08:26:18;;;;;;;56.23;42.63;;;16.00;99.90;;;;;;5049787;28;20408;-73
2023/05/15 08:28:43;;;;;;;50.47;40.60;;;16.10;99.90;;;;;;5048759;28;20601;-73
2023/05/15 08:31:09;;;;;;;49.63;40.03;;;16.10;99.90;;;;;;5031564;28;20420;-73
2023/05/15 08:33:35;;;;;;;52.70;39.83;;;16.20;99.90;;;;;;5031740;28;20177;-73
2023/05/15 08:36:00;;;;;;;50.10;42.37;;;16.30;99.90;;;;;;5049760;28;20256;-73
2023/05/15 08:38:26;;;;;;;52.77;41.30;;;16.30;99.90;;;;;;5049682;28;20200;-73
2023/05/15 08:40:53;;;;;;;48.13;40.70;;;16.40;99.90;;;;;;5049418;28;20223;-73
2023/05/15 08:43:21;;;;;;;42.00;33.60;;;16.50;99.90;;;;;;5049260;28;20209;-73
2023/05/15 08:45:48;;;;;;;33.63;29.97;;;16.50;99.90;;;;;;5049763;28;20436;-73
2023/05/15 08:48:18;;;;;;;35.07;28.30;;;16.50;99.90;;;;;;5049185;28;20412;-73
2023/05/15 08:50:44;;;;;;;29.40;26.30;;;16.60;99.90;;;;;;5014744;28;20831;-73
2023/05/15 08:53:12;;;;;;;27.10;23.37;;;16.60;99.90;;;;;;5049185;28;20439;-73
2023/05/15 08:55:38;;;;;;;21.60;19.50;;;16.70;99.90;;;;;;5049267;28;20459;-73
2023/05/15 08:58:03;;;;;;;21.13;19.00;;;16.70;99.90;;;;;;5048297;28;20443;-73
2023/05/15 09:00:29;;;;;;;24.87;20.63;;;16.80;99.90;;;;;;5048373;28;20456;-73
2023/05/15 09:02:58;;;;;;;22.20;19.97;;;16.80;99.90;;;;;;5048920;28;20201;-73
2023/05/15 09:05:25;;;;;;;20.93;18.73;;;16.80;99.90;;;;;;5031211;28;20177;-73
2023/05/15 09:07:53;;;;;;;19.17;16.70;;;16.80;99.90;;;;;;5048895;28;20424;-73
2023/05/15 09:10:18;;;;;;;26.70;21.03;;;16.90;99.90;;;;;;5048822;28;20420;-73
2023/05/15 09:12:44;;;;;;;20.50;18.40;;;17.00;99.90;;;;;;5048525;28;20446;-73
2023/05/15 09:15:16;;;;;;;21.63;19.50;;;17.10;99.90;;;;;;5049046;28;20178;-73
2023/05/15 09:17:43;;;;;;;19.87;17.90;;;17.10;99.90;;;;;;5048718;28;20650;-73
2023/05/15 09:20:28;;;;;;;21.23;19.07;;;17.30;99.90;;;;;;5048565;28;20530;-73
2023/05/15 09:22:55;;;;;;;22.77;20.37;;;17.40;99.90;;;;;;5048848;28;20937;-73
2023/05/15 09:25:37;;;;;;;20.83;18.73;;;17.50;99.90;;;;;;5048788;28;20618;-73
2023/05/15 09:28:07;;;;;;;19.67;17.77;;;17.60;99.90;;;;;;5030553;28;20431;-73
2023/05/15 09:30:37;;;;;;;20.10;18.07;;;17.60;99.90;;;;;;5030611;28;20448;-73
2023/05/15 09:33:03;;;;;;;23.73;19.63;;;17.70;99.90;;;;;;5048362;28;20436;-73
2023/05/15 09:35:36;;;;;;;18.40;16.70;;;17.70;99.90;;;;;;5048702;28;20818;-73
2023/05/15 09:38:08;;;;;;;21.53;19.03;;;17.80;99.90;;;;;;5048218;28;20419;-73
2023/05/15 09:40:34;;;;;;;20.33;18.07;;;17.90;99.90;;;;;;5048340;28;20455;-73
2023/05/15 09:42:59;;;;;;;19.73;17.73;;;18.00;99.90;;;;;;5048093;28;20808;-73
2023/05/15 09:45:28;;;;;;;20.77;18.70;;;18.20;99.90;;;;;;5030462;28;20227;-73
2023/05/15 09:47:59;;;;;;;20.50;18.40;;;18.30;99.90;;;;;;5048154;28;20634;-73
2023/05/15 09:50:35;;;;;;;18.60;16.77;;;18.50;99.90;;;;;;5048276;28;20493;-73
2023/05/15 09:53:01;;;;;;;19.67;17.57;;;18.50;99.90;;;;;;5048032;28;20943;-73
2023/05/15 09:55:29;;;;;;;18.80;16.27;;;18.60;99.90;;;;;;5048602;28;20470;-73
2023/05/15 09:58:08;;;;;;;18.60;16.63;;;18.60;99.90;;;;;;5030130;28;20901;-73
2023/05/15 10:00:35;;;;;;;18.57;16.67;;;18.70;99.90;;;;;;5048322;28;20924;-73
2023/05/15 10:03:05;;;;;;;18.60;16.67;;;18.70;99.90;;;;;;5047906;28;20489;-73
2023/05/15 10:05:31;;;;;;;18.17;16.47;;;18.80;99.90;;;;;;5048210;28;20408;-73
2023/05/15 10:07:58;;;;;;;19.23;17.23;;;18.90;99.90;;;;;;5048116;28;20702;-73
2023/05/15 10:10:25;;;;;;;17.37;15.67;;;19.00;99.90;;;;;;5047503;28;20439;-73
2023/05/15 10:12:52;;;;;;;18.10;15.00;;;19.00;99.90;;;;;;5047994;28;20789;-73
2023/05/15 10:15:20;;;;;;;20.00;18.00;;;19.10;99.90;;;;;;5048259;28;20523;-73
2023/05/15 10:17:51;;;;;;;17.27;15.57;;;19.10;99.90;;;;;;5047800;28;20435;-73
2023/05/15 10:20:19;;;;;;;20.53;15.87;;;19.20;99.90;;;;;;5047790;28;20481;-74
2023/05/15 10:22:47;;;;;;;19.47;17.47;;;19.20;99.90;;;;;;5029909;28;20436;-73
2023/05/15 10:25:54;;;;;;;17.07;15.00;;;19.30;99.90;;;;;;5029906;28;20436;-74
2023/05/15 10:28:21;;;;;;;17.77;14.47;;;19.30;99.90;;;;;;5047919;28;20499;-73
2023/05/15 10:30:47;;;;;;;16.43;14.57;;;19.40;99.90;;;;;;5029921;28;20855;-73
2023/05/15 10:33:14;;;;;;;16.63;14.40;;;19.40;99.90;;;;;;5047483;28;20432;-73
2023/05/15 10:35:41;;;;;;;16.83;14.70;;;19.50;99.90;;;;;;5045238;28;20766;-73
2023/05/15 10:38:07;;;;;;;15.20;13.80;;;19.50;99.90;;;;;;5046252;28;20431;-73
2023/05/15 10:40:36;;;;;;;15.07;13.63;;;19.60;99.90;;;;;;5029086;28;20459;-73
2023/05/15 10:43:03;;;;;;;17.50;12.90;;;19.60;99.90;;;;;;5047868;28;20471;-72
2023/05/15 10:45:30;;;;;;;15.20;13.57;;;19.70;99.90;;;;;;5046681;28;20483;-73
2023/05/15 10:47:57;;;;;;;12.87;11.60;;;19.80;99.90;;;;;;5029552;28;20739;-73
2023/05/15 10:50:23;;;;;;;17.10;12.83;;;19.80;99.90;;;;;;5047204;28;20907;-72
2023/05/15 10:52:53;;;;;;;12.10;10.90;;;19.80;99.90;;;;;;5029200;28;20515;-72
2023/05/15 10:55:21;;;;;;;13.70;12.40;;;19.90;99.90;;;;;;5047354;28;20185;-73
2023/05/15 10:57:47;;;;;;;14.60;13.10;;;20.00;99.90;;;;;;5047050;28;20420;-72
2023/05/15 11:00:21;;;;;;;13.13;11.40;;;20.00;99.90;;;;;;5047142;28;20744;-72
2023/05/15 11:02:47;;;;;;;11.80;10.70;;;20.10;99.90;;;;;;5047080;28;20492;-73
2023/05/15 11:05:13;;;;;;;11.73;10.53;;;20.10;99.90;;;;;;5047014;28;20428;-72
2023/05/15 11:07:39;;;;;;;12.47;9.70;;;20.10;99.90;;;;;;5047100;28;20412;-73
2023/05/15 11:10:27;;;;;;;12.77;11.57;;;20.20;99.90;;;;;;5029079;28;20259;-73
2023/05/15 11:13:01;;;;;;;12.70;10.43;;;20.20;99.90;;;;;;5029185;28;20847;-73
2023/05/15 11:15:39;;;;;;;9.10;8.30;;;20.20;99.50;;;;;;5047202;28;20539;-73
2023/05/15 11:18:06;;;;;;;12.97;9.70;;;20.30;99.90;;;;;;5040988;28;20415;-73
2023/05/15 11:21:01;;;;;;;10.40;9.40;;;20.30;99.90;;;;;;5046727;28;20895;-72
2023/05/15 11:23:26;;;;;;;10.33;8.90;;;20.30;99.50;;;;;;5049780;28;20420;-72
2023/05/15 11:25:56;;;;;;;10.20;9.10;;;20.40;99.10;;;;;;5050720;28;20978;-72
2023/05/15 11:28:22;;;;;;;9.57;8.70;;;20.40;98.60;;;;;;5050687;28;20720;-73
2023/05/15 11:30:51;;;;;;;8.63;7.83;;;20.30;99.20;;;;;;5024740;28;20420;-72
2023/05/15 11:33:18;;;;;;;11.33;10.03;;;20.40;99.30;;;;;;5050379;28;20578;-73
2023/05/15 11:35:46;;;;;;;8.90;7.80;;;20.40;97.80;;;;;;5050642;28;20890;-73
2023/05/15 11:38:14;;;;;;;9.37;8.53;;;20.40;98.40;;;;;;5048556;28;20498;-73
2023/05/15 11:40:43;;;;;;;10.83;9.70;;;20.50;98.60;;;;;;5041836;28;20549;-73
2023/05/15 11:43:21;;;;;;;11.50;10.30;;;20.60;99.00;;;;;;5050160;28;20543;-72
2023/05/15 11:45:50;;;;;;;12.17;10.83;;;20.60;99.70;;;;;;5050262;28;20420;-73
2023/05/15 11:48:16;;;;;;;14.17;11.17;;;20.60;99.90;;;;;;5050298;28;20421;-73
2023/05/15 11:50:44;;;;;;;12.97;11.77;;;20.70;99.90;;;;;;5049976;28;20986;-72
2023/05/15 11:53:10;;;;;;;12.93;10.57;;;20.70;99.40;;;;;;5050013;28;20436;-73
2023/05/15 11:55:37;;;;;;;13.13;11.83;;;20.80;99.90;;;;;;5050402;28;20409;-73
2023/05/15 11:58:04;;;;;;;12.00;11.00;;;20.90;99.80;;;;;;5050228;28;20849;-73
2023/05/15 12:00:30;;;;;;;11.70;10.70;;;20.90;99.90;;;;;;5032128;28;20483;-72
2023/05/15 12:02:56;;;;;;;13.63;12.40;;;21.00;99.90;;;;;;5050357;28;20432;-73
2023/05/15 12:05:22;;;;;;;12.37;11.20;;;21.00;99.40;;;;;;5050258;28;20234;-73
2023/05/15 12:07:49;;;;;;;12.80;11.60;;;20.90;99.20;;;;;;5050301;28;20408;-73
2023/05/15 12:10:14;;;;;;;11.00;10.00;;;20.90;98.20;;;;;;5050012;28;20937;-73
2023/05/15 12:12:47;;;;;;;12.27;9.50;;;21.00;97.90;;;;;;5050000;28;20432;-73
2023/05/15 12:15:15;;;;;;;10.60;9.70;;;20.90;98.40;;;;;;5049756;28;20177;-71
2023/05/15 12:17:43;;;;;;;11.50;10.47;;;21.00;99.70;;;;;;5049897;28;20456;-73
2023/05/15 12:20:16;;;;;;;11.17;10.07;;;21.00;98.40;;;;;;5031916;28;20455;-73
2023/05/15 12:22:42;;;;;;;10.70;8.40;;;21.00;97.80;;;;;;5049823;28;20433;-72
2023/05/15 12:25:10;;;;;;;9.93;6.20;;;20.90;97.50;;;;;;5049734;28;20422;-73
2023/05/15 12:27:37;;;;;;;6.87;5.90;;;20.80;96.50;;;;;;5049640;28;20189;-73
2023/05/15 12:30:03;;;;;;;8.23;6.07;;;20.80;94.10;;;;;;5031850;28;20925;-73